createdAt,value
2022-12-01T00:21:37.759Z,16.00
2022-12-01T00:24:04.309Z,15.85
2022-12-01T00:28:58.654Z,14.35
2022-12-01T00:36:19.735Z,14.10
2022-12-01T03:36:01.929Z,15.05
2022-12-01T03:38:29.848Z,15.05
2022-12-01T03:46:01.494Z,15.63
2022-12-01T03:53:52.954Z,15.10
2022-12-01T04:26:32.302Z,16.83
2022-12-01T04:29:02.407Z,17.33
2022-12-01T04:31:29.146Z,16.73
2022-12-01T04:33:56.257Z,17.67
2022-12-01T04:43:45.138Z,17.10
2022-12-01T04:46:11.662Z,17.52
2022-12-01T04:48:38.797Z,17.27
2022-12-01T04:51:06.165Z,17.27
2022-12-01T04:56:00.571Z,18.80
2022-12-01T05:03:22.253Z,18.10
2022-12-01T05:05:48.650Z,18.98
2022-12-01T05:08:15.073Z,14.93
2022-12-01T05:10:41.598Z,19.83
2022-12-01T05:13:07.992Z,17.95
2022-12-01T05:15:34.419Z,21.02
2022-12-01T05:18:00.902Z,19.05
2022-12-01T05:20:46.085Z,16.10
2022-12-01T05:23:16.766Z,18.00
2022-12-01T05:25:43.553Z,17.30
2022-12-01T05:28:09.995Z,18.65
2022-12-01T05:30:36.481Z,19.27
2022-12-01T05:33:03.491Z,17.60
2022-12-01T05:35:30.036Z,18.67
2022-12-01T05:37:56.470Z,17.80
2022-12-01T05:40:22.958Z,17.17
2022-12-01T05:42:49.542Z,19.13
2022-12-01T05:45:16.163Z,17.40
2022-12-01T05:47:42.585Z,20.58
2022-12-01T05:50:09.193Z,19.90
2022-12-01T05:52:35.979Z,19.35
2022-12-01T05:55:03.687Z,16.77
2022-12-01T05:57:30.566Z,17.15
2022-12-01T05:59:56.986Z,16.48
2022-12-01T06:02:23.611Z,17.77
2022-12-01T06:04:50.172Z,17.58
2022-12-01T06:07:16.592Z,18.58
2022-12-01T06:09:43.032Z,16.73
2022-12-01T06:12:09.388Z,16.67
2022-12-01T06:14:35.857Z,17.25
2022-12-01T06:17:02.355Z,18.30
2022-12-01T06:19:28.862Z,22.65
2022-12-01T06:21:55.272Z,17.23
2022-12-01T06:24:21.715Z,15.52
2022-12-01T06:26:48.170Z,15.52
2022-12-01T06:29:14.833Z,17.55
2022-12-01T06:31:41.271Z,17.02
2022-12-01T06:34:07.901Z,18.30
2022-12-01T06:36:34.768Z,16.58
2022-12-01T06:39:01.180Z,17.08
2022-12-01T06:41:27.744Z,15.35
2022-12-01T06:43:54.744Z,17.23
2022-12-01T06:46:21.271Z,17.70
2022-12-01T06:48:49.084Z,18.05
2022-12-01T06:53:42.124Z,16.42
2022-12-01T06:56:08.576Z,17.85
2022-12-01T06:58:35.174Z,18.10
2022-12-01T07:03:35.527Z,16.75
2022-12-01T07:06:02.566Z,15.73
2022-12-01T07:08:29.722Z,14.90
2022-12-01T07:10:59.914Z,14.82
2022-12-01T07:13:31.495Z,17.35
2022-12-01T07:15:59.847Z,16.73
2022-12-01T07:18:26.365Z,15.13
2022-12-01T07:20:52.818Z,17.17
2022-12-01T07:23:19.309Z,17.30
2022-12-01T07:25:45.843Z,16.13
2022-12-01T07:28:12.270Z,16.45
2022-12-01T07:30:38.871Z,18.00
2022-12-01T07:33:05.366Z,17.17
2022-12-01T07:35:31.772Z,17.15
2022-12-01T07:37:58.304Z,17.65
2022-12-01T07:40:24.849Z,16.00
2022-12-01T07:42:51.257Z,17.50
2022-12-01T07:45:17.696Z,17.48
2022-12-01T07:47:44.638Z,17.98
2022-12-01T07:50:11.810Z,16.80
2022-12-01T07:52:38.221Z,17.15
2022-12-01T07:55:04.785Z,16.80
2022-12-01T07:57:31.286Z,17.08
2022-12-01T07:59:57.758Z,18.20
2022-12-01T08:02:24.218Z,19.33
2022-12-01T08:04:50.659Z,18.00
2022-12-01T08:07:17.167Z,18.15
2022-12-01T08:09:45.473Z,17.85
2022-12-01T08:12:12.061Z,19.58
2022-12-01T08:14:38.769Z,18.95
2022-12-01T08:17:05.275Z,19.42
2022-12-01T08:19:31.832Z,19.08
2022-12-01T08:21:58.272Z,19.15
2022-12-01T08:24:25.712Z,22.10
2022-12-01T08:26:52.279Z,19.08
2022-12-01T08:29:20.525Z,19.58
2022-12-01T08:31:47.476Z,20.08
2022-12-01T08:34:14.057Z,19.30
2022-12-01T08:36:40.483Z,19.67
2022-12-01T08:39:07.837Z,18.05
2022-12-01T08:41:34.442Z,18.35
2022-12-01T08:44:01.719Z,21.27
2022-12-01T08:46:29.685Z,20.40
2022-12-01T08:48:57.501Z,19.20
2022-12-01T08:51:24.815Z,20.23
2022-12-01T08:53:51.285Z,18.83
2022-12-01T08:56:29.471Z,18.52
2022-12-01T08:58:56.306Z,16.63
2022-12-01T09:01:22.980Z,18.75
2022-12-01T09:04:05.069Z,20.40
2022-12-01T09:06:33.119Z,20.27
2022-12-01T09:09:00.365Z,18.95
2022-12-01T09:11:26.907Z,18.73
2022-12-01T09:13:54.843Z,17.67
2022-12-01T09:16:21.706Z,18.23
2022-12-01T09:18:48.584Z,18.63
2022-12-01T09:21:20.825Z,18.13
2022-12-01T09:23:47.297Z,18.38
2022-12-01T09:26:18.202Z,20.35
2022-12-01T09:28:45.707Z,18.58
2022-12-01T09:31:12.725Z,18.33
2022-12-01T09:33:39.474Z,18.27
2022-12-01T09:36:06.874Z,17.98
2022-12-01T09:38:34.273Z,16.48
2022-12-01T09:41:18.904Z,17.85
2022-12-01T09:43:59.442Z,19.77
2022-12-01T09:46:40.765Z,16.20
2022-12-01T09:49:12.127Z,14.57
2022-12-01T09:51:38.634Z,19.15
2022-12-01T09:54:06.712Z,18.73
2022-12-01T09:56:36.510Z,18.75
2022-12-01T09:59:07.310Z,18.60
2022-12-01T10:01:37.951Z,18.63
2022-12-01T10:04:24.829Z,18.45
2022-12-01T10:07:03.103Z,17.52
2022-12-01T10:09:32.757Z,18.52
2022-12-01T10:12:02.429Z,16.75
2022-12-01T10:14:29.633Z,20.70
2022-12-01T10:17:14.370Z,17.70
2022-12-01T10:19:55.419Z,17.73
2022-12-01T10:22:28.105Z,17.83
2022-12-01T10:24:56.385Z,14.70
2022-12-01T10:27:30.572Z,15.68
2022-12-01T10:30:09.368Z,16.83
2022-12-01T10:32:41.014Z,18.20
2022-12-01T10:35:09.887Z,17.17
2022-12-01T10:37:38.037Z,18.35
2022-12-01T10:40:04.874Z,15.90
2022-12-01T10:42:34.594Z,17.15
2022-12-01T10:45:02.815Z,17.95
2022-12-01T10:47:29.308Z,17.10
2022-12-01T10:49:56.286Z,16.77
2022-12-01T10:52:39.260Z,18.48
2022-12-01T10:55:26.608Z,18.15
2022-12-01T10:57:54.678Z,17.77
2022-12-01T11:00:58.051Z,16.33
2022-12-01T11:03:21.700Z,16.73
2022-12-01T11:05:53.315Z,18.63
2022-12-01T11:08:24.019Z,17.08
2022-12-01T11:10:50.639Z,18.40
2022-12-01T11:13:30.938Z,14.23
2022-12-01T11:15:58.892Z,14.75
2022-12-01T11:18:31.883Z,17.92
2022-12-01T11:21:21.294Z,16.90
2022-12-01T11:23:48.810Z,16.77
2022-12-01T11:26:26.475Z,14.70
2022-12-01T11:29:01.270Z,16.05
2022-12-01T11:31:38.710Z,15.23
2022-12-01T11:34:05.412Z,14.93
2022-12-01T11:36:36.072Z,14.55
2022-12-01T11:39:02.864Z,12.30
2022-12-01T11:41:35.042Z,15.43
2022-12-01T11:44:04.094Z,15.20
2022-12-01T11:46:35.448Z,15.25
2022-12-01T11:49:02.458Z,14.57
2022-12-01T11:51:29.014Z,15.43
2022-12-01T11:54:13.870Z,14.98
2022-12-01T11:56:40.781Z,14.45
2022-12-01T11:59:11.559Z,15.48
2022-12-01T12:01:38.019Z,16.50
2022-12-01T12:04:10.493Z,15.57
2022-12-01T12:09:13.392Z,16.40
2022-12-01T12:11:58.907Z,17.25
2022-12-01T12:14:47.342Z,16.00
2022-12-01T12:17:16.889Z,15.85
2022-12-01T12:20:08.442Z,13.52
2022-12-01T12:22:39.050Z,16.42
2022-12-01T12:25:23.080Z,16.42
2022-12-01T12:27:57.833Z,15.98
2022-12-01T12:30:37.968Z,17.92
2022-12-01T12:33:12.719Z,15.80
2022-12-01T12:35:39.257Z,16.90
2022-12-01T12:38:12.302Z,17.33
2022-12-01T12:40:50.810Z,17.33
2022-12-01T12:43:21.852Z,18.02
2022-12-01T12:45:57.482Z,15.10
2022-12-01T12:48:29.010Z,17.50
2022-12-01T12:51:13.816Z,17.13
2022-12-01T12:53:58.092Z,17.27
2022-12-01T12:56:25.506Z,17.80
2022-12-01T12:58:57.638Z,14.10
2022-12-01T13:01:27.425Z,18.27
2022-12-01T13:03:56.953Z,14.65
2022-12-01T13:06:29.238Z,16.50
2022-12-01T13:08:55.776Z,15.98
2022-12-01T13:11:28.220Z,14.85
2022-12-01T13:13:57.417Z,15.18
2022-12-01T13:16:35.942Z,14.20
2022-12-01T13:19:11.186Z,15.13
2022-12-01T13:21:40.849Z,17.10
2022-12-01T13:24:08.127Z,15.73
2022-12-01T13:26:36.353Z,15.15
2022-12-01T13:29:04.967Z,16.33
2022-12-01T13:31:41.392Z,14.60
2022-12-01T13:34:07.957Z,17.23
2022-12-01T13:36:49.719Z,16.10
2022-12-01T13:39:36.197Z,13.27
2022-12-01T13:42:05.223Z,16.50
2022-12-01T13:44:34.105Z,13.38
2022-12-01T13:47:00.659Z,15.70
2022-12-01T13:49:39.553Z,11.98
2022-12-01T13:52:14.985Z,15.18
2022-12-01T13:54:58.866Z,16.25
2022-12-01T13:57:29.867Z,13.88
2022-12-01T13:59:59.322Z,15.18
2022-12-01T14:02:27.307Z,15.95
2022-12-01T14:04:53.990Z,15.70
2022-12-01T14:07:27.876Z,14.98
2022-12-01T14:09:58.899Z,14.75
2022-12-01T14:12:31.588Z,15.95
2022-12-01T14:15:04.394Z,15.38
2022-12-01T14:17:32.577Z,14.50
2022-12-01T14:20:08.565Z,15.02
2022-12-01T14:22:39.455Z,15.05
2022-12-01T14:25:21.085Z,15.30
2022-12-01T14:27:49.163Z,16.35
2022-12-01T14:30:36.000Z,15.90
2022-12-01T14:33:21.272Z,15.60
2022-12-01T14:35:47.778Z,12.85
2022-12-01T14:38:14.456Z,14.25
2022-12-01T14:40:40.986Z,15.02
2022-12-01T14:43:30.486Z,14.02
2022-12-01T14:46:03.085Z,13.40
2022-12-01T14:48:34.668Z,14.65
2022-12-01T14:51:14.135Z,14.27
2022-12-01T14:53:41.920Z,14.20
2022-12-01T14:58:55.755Z,15.77
2022-12-01T15:01:23.488Z,13.73
2022-12-01T15:03:52.037Z,13.60
2022-12-01T15:06:19.631Z,13.55
2022-12-01T15:09:03.862Z,14.15
2022-12-01T15:11:31.064Z,12.77
2022-12-01T15:13:57.757Z,14.40
2022-12-01T15:16:28.624Z,13.65
2022-12-01T15:18:55.117Z,15.60
2022-12-01T15:21:32.030Z,14.52
2022-12-01T15:24:17.280Z,14.55
2022-12-01T15:26:47.925Z,14.25
2022-12-01T15:29:19.297Z,14.57
2022-12-01T15:31:50.605Z,13.80
2022-12-01T15:36:51.572Z,14.18
2022-12-01T15:39:24.827Z,14.50
2022-12-01T15:46:54.180Z,15.40
2022-12-01T15:49:32.914Z,14.68
2022-12-01T15:52:07.257Z,14.05
2022-12-01T15:54:33.897Z,14.60
2022-12-01T15:57:02.385Z,15.23
2022-12-01T15:59:30.995Z,14.02
2022-12-01T16:01:58.045Z,15.15
2022-12-01T16:04:26.321Z,15.30
2022-12-01T16:06:58.391Z,15.00
2022-12-01T16:09:30.849Z,13.93
2022-12-01T16:12:06.673Z,14.30
2022-12-01T16:14:33.629Z,14.70
2022-12-01T16:17:00.224Z,15.60
2022-12-01T16:19:26.787Z,15.18
2022-12-01T16:21:56.127Z,15.48
2022-12-01T16:24:26.241Z,15.93
2022-12-01T16:26:52.797Z,15.82
2022-12-01T16:29:23.122Z,13.48
2022-12-01T16:32:18.857Z,16.63
2022-12-01T16:34:46.552Z,16.85
2022-12-01T16:37:13.901Z,16.98
2022-12-01T16:39:40.396Z,16.45
2022-12-01T16:44:33.702Z,15.80
2022-12-01T16:47:00.187Z,16.90
2022-12-01T16:49:26.667Z,16.33
2022-12-01T16:51:57.428Z,16.42
2022-12-01T16:54:25.355Z,16.98
2022-12-01T16:56:51.866Z,15.43
2022-12-01T16:59:18.394Z,17.75
2022-12-01T17:01:44.968Z,16.60
2022-12-01T17:04:11.437Z,16.05
2022-12-01T17:06:38.490Z,16.55
2022-12-01T17:09:05.476Z,16.08
2022-12-01T17:11:32.271Z,17.85
2022-12-01T17:13:59.065Z,17.88
2022-12-01T17:16:25.542Z,17.50
2022-12-01T17:18:52.319Z,18.27
2022-12-01T17:21:18.870Z,16.73
2022-12-01T17:23:45.324Z,18.10
2022-12-01T17:26:13.253Z,16.42
2022-12-01T17:28:39.780Z,18.73
2022-12-01T17:31:06.824Z,17.17
2022-12-01T17:33:33.796Z,23.52
2022-12-01T17:36:01.278Z,22.15
2022-12-01T17:38:27.816Z,23.33
2022-12-01T17:41:04.652Z,21.88
2022-12-01T17:43:32.117Z,23.73
2022-12-01T17:45:58.642Z,19.13
2022-12-01T17:48:25.233Z,17.27
2022-12-01T17:50:51.683Z,18.25
2022-12-01T17:53:18.256Z,18.27
2022-12-01T17:55:44.883Z,18.00
2022-12-01T17:58:11.358Z,19.92
2022-12-01T18:00:37.901Z,17.38
2022-12-01T18:03:04.594Z,18.23
2022-12-01T18:05:31.216Z,18.92
2022-12-01T18:07:57.778Z,17.40
2022-12-01T18:10:24.265Z,18.27
2022-12-01T18:12:50.713Z,19.00
2022-12-01T18:15:18.397Z,21.00
2022-12-01T18:17:44.945Z,17.98
2022-12-01T18:20:11.556Z,19.00
2022-12-01T18:22:38.034Z,18.25
2022-12-01T18:25:04.632Z,20.17
2022-12-01T18:27:31.046Z,19.65
2022-12-01T18:29:57.534Z,18.83
2022-12-01T18:32:23.985Z,17.00
2022-12-01T18:34:50.682Z,17.60
2022-12-01T18:37:17.267Z,19.95
2022-12-01T18:39:43.897Z,19.13
2022-12-01T18:42:10.886Z,19.20
2022-12-01T18:44:38.941Z,18.33
2022-12-01T18:47:06.551Z,17.55
2022-12-01T18:52:00.378Z,21.33
2022-12-01T18:54:26.833Z,18.33
2022-12-01T18:56:53.474Z,19.45
2022-12-01T18:59:20.058Z,19.52
2022-12-01T19:01:47.641Z,19.20
2022-12-01T19:06:43.358Z,20.38
2022-12-01T19:09:10.828Z,21.48
2022-12-01T19:14:05.065Z,20.67
2022-12-01T19:16:31.609Z,21.85
2022-12-01T19:18:58.388Z,22.25
2022-12-01T19:21:24.865Z,22.30
2022-12-01T19:23:52.284Z,20.42
2022-12-01T19:26:19.941Z,18.55
2022-12-01T19:28:46.889Z,20.17
2022-12-01T19:31:15.374Z,18.20
2022-12-01T19:33:41.997Z,21.52
2022-12-01T19:36:10.023Z,19.98
2022-12-01T19:38:36.439Z,20.73
2022-12-01T19:41:03.575Z,19.98
2022-12-01T19:43:30.046Z,20.27
2022-12-01T19:45:56.576Z,19.50
2022-12-01T19:48:23.077Z,18.33
2022-12-01T19:50:49.617Z,19.23
2022-12-01T19:53:16.127Z,19.50
2022-12-01T19:55:42.593Z,20.10
2022-12-01T19:58:09.077Z,19.55
2022-12-01T20:00:36.143Z,21.10
2022-12-01T20:03:02.930Z,20.48
2022-12-01T20:05:29.438Z,19.92
2022-12-01T20:07:55.947Z,17.90
2022-12-01T20:10:22.569Z,17.42
2022-12-01T20:12:49.342Z,18.98
2022-12-01T20:15:16.378Z,17.50
2022-12-01T20:17:43.346Z,19.25
2022-12-01T20:20:10.450Z,18.55
2022-12-01T20:22:37.147Z,18.58
2022-12-01T20:25:04.541Z,18.55
2022-12-01T20:27:31.149Z,17.77
2022-12-01T20:29:57.680Z,17.50
2022-12-01T20:32:24.271Z,17.70
2022-12-01T20:34:51.031Z,18.40
2022-12-01T20:37:17.822Z,17.80
2022-12-01T20:39:44.311Z,15.68
2022-12-01T20:42:11.282Z,17.95
2022-12-01T20:44:37.902Z,14.27
2022-12-01T20:47:04.607Z,16.80
2022-12-01T20:49:31.347Z,15.95
2022-12-01T20:51:57.877Z,15.77
2022-12-01T20:56:55.910Z,17.33
2022-12-01T20:59:22.350Z,15.97
2022-12-01T21:01:48.851Z,16.33
2022-12-01T21:04:15.400Z,17.25
2022-12-01T21:06:42.281Z,18.00
2022-12-01T21:09:08.847Z,17.85
2022-12-01T21:11:57.004Z,18.08
2022-12-01T21:14:27.615Z,17.40
2022-12-01T21:16:55.485Z,18.60
2022-12-01T21:19:26.213Z,17.70
2022-12-01T21:24:22.322Z,18.90
2022-12-01T21:29:41.393Z,16.75
2022-12-01T21:32:23.534Z,20.15
2022-12-01T21:34:50.200Z,19.60
2022-12-01T21:37:24.026Z,17.30
2022-12-01T21:39:51.538Z,18.80
2022-12-01T21:42:22.020Z,17.55
2022-12-01T21:44:49.035Z,15.80
2022-12-01T21:47:17.698Z,16.30
2022-12-01T21:49:47.153Z,16.48
2022-12-01T21:52:15.286Z,15.88
2022-12-01T21:54:41.692Z,17.38
2022-12-01T21:57:21.307Z,15.65
2022-12-01T21:59:48.085Z,17.17
2022-12-01T22:02:27.860Z,17.42
2022-12-01T22:04:54.355Z,17.58
2022-12-01T22:07:20.921Z,20.50
2022-12-01T22:09:48.045Z,23.58
2022-12-01T22:12:28.413Z,18.90
2022-12-01T22:15:01.759Z,21.85
2022-12-01T22:17:28.205Z,17.88
2022-12-01T22:19:59.967Z,19.02
2022-12-01T22:22:27.566Z,16.67
2022-12-01T22:24:59.463Z,17.40
2022-12-01T22:27:26.272Z,18.17
2022-12-01T22:29:56.230Z,17.15
2022-12-01T22:32:38.002Z,17.50
2022-12-01T22:35:24.627Z,17.13
2022-12-01T22:40:31.323Z,17.17
2022-12-01T22:42:59.173Z,20.92
2022-12-01T22:45:26.598Z,17.92
2022-12-01T22:48:00.341Z,15.35
2022-12-01T22:53:15.523Z,16.77
2022-12-01T22:55:42.307Z,14.57
2022-12-01T22:58:19.930Z,18.33
2022-12-01T23:00:46.446Z,17.73
2022-12-01T23:03:13.137Z,16.38
2022-12-01T23:05:41.206Z,18.05
2022-12-01T23:08:11.829Z,15.98
2022-12-01T23:10:39.544Z,16.27
2022-12-01T23:13:13.571Z,17.40
2022-12-01T23:15:40.926Z,16.30
2022-12-01T23:18:12.311Z,15.63
2022-12-01T23:20:38.975Z,15.57
2022-12-01T23:23:08.341Z,16.88
2022-12-01T23:25:35.065Z,16.42
2022-12-01T23:28:04.043Z,14.02
2022-12-01T23:30:30.457Z,17.27
2022-12-01T23:33:11.058Z,15.15
2022-12-01T23:35:48.621Z,16.83
2022-12-01T23:38:16.630Z,17.60
2022-12-01T23:40:43.048Z,15.77
2022-12-01T23:43:16.679Z,15.93
2022-12-01T23:45:43.629Z,15.70
2022-12-01T23:48:14.715Z,16.30
2022-12-01T23:50:41.150Z,16.20
2022-12-01T23:53:18.007Z,17.38
2022-12-01T23:58:13.499Z,16.48
